createdAt,value
2018-06-07T00:02:31.958Z,3.40
2018-06-07T00:05:35.078Z,3.40
2018-06-07T00:08:38.326Z,3.80
2018-06-07T00:11:41.573Z,3.23
2018-06-07T00:14:44.755Z,3.63
2018-06-07T00:17:47.954Z,3.50
2018-06-07T00:20:51.163Z,3.23
2018-06-07T00:23:54.258Z,3.50
2018-06-07T00:26:57.526Z,3.30
2018-06-07T00:30:00.702Z,3.20
2018-06-07T00:33:05.331Z,2.77
2018-06-07T00:36:08.573Z,3.53
2018-06-07T00:39:11.561Z,3.27
2018-06-07T00:42:14.706Z,2.87
2018-06-07T00:45:17.907Z,3.30
2018-06-07T00:48:21.130Z,3.17
2018-06-07T00:51:24.359Z,3.23
2018-06-07T00:54:27.547Z,3.40
2018-06-07T00:57:30.770Z,3.30
2018-06-07T01:00:34.098Z,3.17
2018-06-07T01:03:37.444Z,2.87
2018-06-07T01:06:40.650Z,3.13
2018-06-07T01:09:43.817Z,3.13
2018-06-07T01:12:47.029Z,3.40
2018-06-07T01:15:50.439Z,2.83
2018-06-07T01:18:53.654Z,3.10
2018-06-07T01:21:56.941Z,3.20
2018-06-07T01:25:00.130Z,3.03
2018-06-07T01:28:03.209Z,2.77
2018-06-07T01:32:11.442Z,3.00
2018-06-07T01:35:15.158Z,2.70
2018-06-07T01:38:29.760Z,3.03
2018-06-07T01:41:32.641Z,3.07
2018-06-07T01:44:35.705Z,3.00
2018-06-07T01:47:38.765Z,2.50
2018-06-07T01:50:41.865Z,3.00
2018-06-07T01:53:44.957Z,3.20
2018-06-07T01:56:48.026Z,2.80
2018-06-07T01:59:51.106Z,2.77
2018-06-07T02:02:54.197Z,3.30
2018-06-07T02:05:57.291Z,3.07
2018-06-07T02:09:00.358Z,3.30
2018-06-07T02:12:03.449Z,3.13
2018-06-07T02:15:06.680Z,3.13
2018-06-07T02:18:09.794Z,3.10
2018-06-07T02:21:12.877Z,3.13
2018-06-07T02:24:15.961Z,2.77
2018-06-07T02:27:19.049Z,2.70
2018-06-07T02:30:22.112Z,2.87
2018-06-07T02:33:24.980Z,2.90
2018-06-07T02:36:28.046Z,3.10
2018-06-07T02:39:31.117Z,2.70
2018-06-07T02:42:34.210Z,3.53
2018-06-07T02:45:37.278Z,2.60
2018-06-07T02:48:40.349Z,3.50
2018-06-07T02:51:43.414Z,3.00
2018-06-07T02:54:46.482Z,2.90
2018-06-07T02:57:49.636Z,2.80
2018-06-07T03:00:52.708Z,2.90
2018-06-07T03:03:55.777Z,2.60
2018-06-07T03:06:58.857Z,3.00
2018-06-07T03:10:01.952Z,2.63
2018-06-07T03:13:05.229Z,2.70
2018-06-07T03:16:08.317Z,2.77
2018-06-07T03:19:11.385Z,3.40
2018-06-07T03:22:14.470Z,2.87
2018-06-07T03:25:17.341Z,3.30
2018-06-07T03:28:20.410Z,2.80
2018-06-07T03:31:23.552Z,2.60
2018-06-07T03:34:26.569Z,2.87
2018-06-07T03:37:29.649Z,3.23
2018-06-07T03:40:32.734Z,2.40
2018-06-07T03:43:35.791Z,3.33
2018-06-07T03:46:38.665Z,2.63
2018-06-07T03:49:41.704Z,3.10
2018-06-07T03:52:44.837Z,2.40
2018-06-07T03:55:47.881Z,2.80
2018-06-07T03:58:50.987Z,2.57
2018-06-07T04:01:54.063Z,3.43
2018-06-07T04:04:57.125Z,2.80
2018-06-07T04:08:00.000Z,2.63
2018-06-07T04:11:03.110Z,2.43
2018-06-07T04:14:05.968Z,2.57
2018-06-07T04:17:09.044Z,2.40
2018-06-07T04:20:12.117Z,2.30
2018-06-07T04:23:15.193Z,2.70
2018-06-07T04:26:18.281Z,2.67
2018-06-07T04:29:21.338Z,2.60
2018-06-07T04:32:24.417Z,2.30
2018-06-07T04:35:27.485Z,2.23
2018-06-07T04:38:30.574Z,2.40
2018-06-07T04:41:33.650Z,2.70
2018-06-07T04:44:36.713Z,3.10
2018-06-07T04:47:39.584Z,2.40
2018-06-07T04:50:42.456Z,2.43
2018-06-07T04:53:45.517Z,2.67
2018-06-07T04:56:48.605Z,2.50
2018-06-07T04:59:51.667Z,2.80
2018-06-07T05:02:54.781Z,2.93
2018-06-07T05:06:00.339Z,2.30
2018-06-07T05:09:05.634Z,2.70
2018-06-07T05:12:08.517Z,2.47
2018-06-07T05:15:11.377Z,2.60
2018-06-07T05:18:14.481Z,2.90
2018-06-07T05:21:17.545Z,2.80
2018-06-07T05:24:20.635Z,2.47
2018-06-07T05:27:23.741Z,2.43
2018-06-07T05:30:26.807Z,2.60
2018-06-07T05:33:29.872Z,2.60
2018-06-07T05:36:32.933Z,2.33
2018-06-07T05:39:36.013Z,2.17
2018-06-07T05:42:39.094Z,2.27
2018-06-07T05:45:42.174Z,2.23
2018-06-07T05:48:45.256Z,2.10
2018-06-07T05:51:48.379Z,2.30
2018-06-07T05:54:51.483Z,2.10
2018-06-07T05:57:54.561Z,2.30
2018-06-07T06:00:57.657Z,2.00
2018-06-07T06:04:00.750Z,2.03
2018-06-07T06:07:03.850Z,2.27
2018-06-07T06:10:06.936Z,2.30
2018-06-07T06:13:10.029Z,2.33
2018-06-07T06:16:12.889Z,2.63
2018-06-07T06:19:15.967Z,2.60
2018-06-07T06:22:19.038Z,2.60
2018-06-07T06:25:22.108Z,2.10
2018-06-07T06:28:25.190Z,2.30
2018-06-07T06:31:41.760Z,2.37
2018-06-07T06:34:44.843Z,3.20
2018-06-07T06:38:52.681Z,2.63
2018-06-07T06:42:02.714Z,2.70
2018-06-07T06:45:05.782Z,2.50
2018-06-07T06:48:08.869Z,2.90
2018-06-07T06:51:11.947Z,2.57
2018-06-07T06:54:15.093Z,2.40
2018-06-07T06:57:18.166Z,2.83
2018-06-07T07:00:21.237Z,2.90
2018-06-07T07:03:24.357Z,2.50
2018-06-07T07:06:27.433Z,2.27
2018-06-07T07:09:30.504Z,2.67
2018-06-07T07:12:33.594Z,2.30
2018-06-07T07:15:39.854Z,2.52
2018-06-07T07:18:42.965Z,2.70
2018-06-07T07:21:46.037Z,2.62
2018-06-07T07:24:49.101Z,2.52
2018-06-07T07:27:52.177Z,2.98
2018-06-07T07:30:55.246Z,3.20
2018-06-07T07:33:58.324Z,2.47
2018-06-07T07:37:01.372Z,2.90
2018-06-07T07:40:04.453Z,2.45
2018-06-07T07:43:07.531Z,2.27
2018-06-07T07:46:10.613Z,2.98
2018-06-07T07:49:13.712Z,3.00
2018-06-07T07:52:16.784Z,2.77
2018-06-07T07:55:21.144Z,3.40
2018-06-07T07:58:24.016Z,3.33
2018-06-07T08:01:27.093Z,2.90
2018-06-07T08:04:30.197Z,3.17
2018-06-07T08:07:33.256Z,3.55
2018-06-07T08:10:36.353Z,3.37
2018-06-07T08:13:39.467Z,3.30
2018-06-07T08:16:42.577Z,3.90
2018-06-07T08:19:45.461Z,4.20
2018-06-07T08:22:48.315Z,3.85
2018-06-07T08:25:51.505Z,3.85
2018-06-07T08:28:54.576Z,4.05
2018-06-07T08:31:57.637Z,4.30
2018-06-07T08:35:00.965Z,4.35
2018-06-07T08:38:04.045Z,4.17
2018-06-07T08:41:07.142Z,3.40
2018-06-07T08:44:10.230Z,4.12
2018-06-07T08:47:13.308Z,4.42
2018-06-07T08:50:16.398Z,4.62
2018-06-07T08:53:19.500Z,4.45
2018-06-07T08:56:22.601Z,5.15
2018-06-07T08:59:25.679Z,4.80
2018-06-07T09:02:28.766Z,5.47
2018-06-07T09:05:31.857Z,4.45
2018-06-07T09:08:34.918Z,5.08
2018-06-07T09:11:38.001Z,5.15
2018-06-07T09:14:41.092Z,5.25
2018-06-07T09:17:44.226Z,5.08
2018-06-07T09:20:47.241Z,5.65
2018-06-07T09:23:50.337Z,5.50
2018-06-07T09:26:53.425Z,5.65
2018-06-07T09:29:56.501Z,5.15
2018-06-07T09:32:59.565Z,5.67
2018-06-07T09:36:04.685Z,6.30
2018-06-07T09:39:08.382Z,6.10
2018-06-07T09:42:11.475Z,5.80
2018-06-07T09:45:14.565Z,6.20
2018-06-07T09:48:17.645Z,6.70
2018-06-07T09:51:20.733Z,6.80
2018-06-07T09:54:23.827Z,6.33
2018-06-07T09:57:26.930Z,7.17
2018-06-07T10:03:39.393Z,7.73
2018-06-07T10:06:42.466Z,7.43
2018-06-07T10:09:45.526Z,7.50
2018-06-07T10:12:48.602Z,7.27
2018-06-07T10:15:52.784Z,7.50
2018-06-07T10:18:55.853Z,7.77
2018-06-07T10:21:58.930Z,8.67
2018-06-07T10:25:02.058Z,7.80
2018-06-07T10:28:05.125Z,8.40
2018-06-07T10:31:08.217Z,10.90
2018-06-07T10:34:11.295Z,8.83
2018-06-07T10:37:16.473Z,8.47
2018-06-07T10:40:19.548Z,8.93
2018-06-07T10:43:22.605Z,8.43
2018-06-07T10:46:25.708Z,9.17
2018-06-07T10:49:28.761Z,8.70
2018-06-07T10:52:31.857Z,8.33
2018-06-07T10:55:35.016Z,7.53
2018-06-07T10:58:37.860Z,7.40
2018-06-07T11:01:40.934Z,8.50
2018-06-07T11:04:43.998Z,8.43
2018-06-07T11:07:47.089Z,7.60
2018-06-07T11:10:50.177Z,8.40
2018-06-07T11:13:53.253Z,8.17
2018-06-07T11:16:56.142Z,7.67
2018-06-07T11:19:58.980Z,7.43
2018-06-07T11:23:02.125Z,7.97
2018-06-07T11:26:05.215Z,7.50
2018-06-07T11:29:08.064Z,8.00
2018-06-07T11:32:11.142Z,8.00
2018-06-07T11:35:14.216Z,8.00
2018-06-07T11:38:17.289Z,9.40
2018-06-07T11:41:20.383Z,8.17
2018-06-07T11:44:23.497Z,10.77
2018-06-07T11:47:26.550Z,9.20
2018-06-07T11:50:29.609Z,9.00
2018-06-07T11:53:32.678Z,8.93
2018-06-07T11:56:45.751Z,9.20
2018-06-07T11:59:48.617Z,8.53
2018-06-07T12:02:51.717Z,8.47
2018-06-07T12:05:54.789Z,9.93
2018-06-07T12:08:57.849Z,10.13
2018-06-07T12:12:00.941Z,9.17
2018-06-07T12:15:04.113Z,9.33
2018-06-07T12:18:07.202Z,9.80
2018-06-07T12:21:10.289Z,9.90
2018-06-07T12:24:13.358Z,9.93
2018-06-07T12:27:16.425Z,9.13
2018-06-07T12:30:19.503Z,9.07
2018-06-07T12:33:22.597Z,8.90
2018-06-07T12:36:25.706Z,9.60
2018-06-07T12:39:28.781Z,9.60
2018-06-07T12:42:31.844Z,9.43
2018-06-07T12:45:34.924Z,9.53
2018-06-07T12:48:38.029Z,10.03
2018-06-07T12:51:41.133Z,9.33
2018-06-07T12:54:44.214Z,10.00
2018-06-07T12:57:47.305Z,9.30
2018-06-07T13:00:50.373Z,9.00
2018-06-07T13:03:53.481Z,9.27
2018-06-07T13:06:56.564Z,9.43
2018-06-07T13:09:59.658Z,9.43
2018-06-07T13:13:02.745Z,9.60
2018-06-07T13:16:05.940Z,8.93
2018-06-07T13:19:09.265Z,8.30
2018-06-07T13:22:12.336Z,9.70
2018-06-07T13:25:15.414Z,9.23
2018-06-07T13:28:18.285Z,9.23
2018-06-07T13:31:21.140Z,9.80
2018-06-07T13:34:24.222Z,9.27
2018-06-07T13:37:27.293Z,9.63
2018-06-07T13:40:30.385Z,9.70
2018-06-07T13:43:33.458Z,9.97
2018-06-07T13:46:36.522Z,9.57
2018-06-07T13:49:39.397Z,9.60
2018-06-07T13:52:42.472Z,9.37
2018-06-07T13:55:45.543Z,10.13
2018-06-07T13:58:48.621Z,10.30
2018-06-07T14:01:51.706Z,10.13
2018-06-07T14:04:54.805Z,10.17
2018-06-07T14:07:57.886Z,10.37
2018-06-07T14:11:00.966Z,10.87
2018-06-07T14:14:04.077Z,10.23
2018-06-07T14:17:07.169Z,10.33
2018-06-07T14:20:10.262Z,10.00
2018-06-07T14:23:13.319Z,9.43
2018-06-07T14:26:16.192Z,10.37
2018-06-07T14:29:19.274Z,10.13
2018-06-07T14:32:22.356Z,10.13
2018-06-07T14:35:25.434Z,10.13
2018-06-07T14:38:28.516Z,10.77
2018-06-07T14:41:31.685Z,10.70
2018-06-07T14:44:34.822Z,10.30
2018-06-07T14:47:37.900Z,10.27
2018-06-07T14:50:40.993Z,10.47
2018-06-07T14:53:44.101Z,10.87
2018-06-07T14:56:47.210Z,10.73
2018-06-07T14:59:50.290Z,10.33
2018-06-07T15:02:53.372Z,10.50
2018-06-07T15:05:56.466Z,10.50
2018-06-07T15:08:59.562Z,10.33
2018-06-07T15:12:02.649Z,9.63
2018-06-07T15:15:06.217Z,9.70
2018-06-07T15:18:09.305Z,9.60
2018-06-07T15:21:12.398Z,9.07
2018-06-07T15:24:15.467Z,8.67
2018-06-07T15:27:19.490Z,9.27
2018-06-07T15:30:22.582Z,10.17
2018-06-07T15:33:25.730Z,10.13
2018-06-07T15:36:28.769Z,9.97
2018-06-07T15:39:31.849Z,11.70
2018-06-07T15:42:34.925Z,10.23
2018-06-07T15:45:37.833Z,10.40
2018-06-07T15:48:40.901Z,10.23
2018-06-07T15:51:43.765Z,9.90
2018-06-07T15:54:52.910Z,10.47
2018-06-07T15:57:55.969Z,10.93
2018-06-07T16:00:59.037Z,10.70
2018-06-07T16:04:02.154Z,10.83
2018-06-07T16:07:05.246Z,13.67
2018-06-07T16:10:08.309Z,9.87
2018-06-07T16:13:11.382Z,11.10
2018-06-07T16:16:14.497Z,10.80
2018-06-07T16:19:17.572Z,10.10
2018-06-07T16:22:20.705Z,10.00
2018-06-07T16:25:23.785Z,10.70
2018-06-07T16:28:26.836Z,10.63
2018-06-07T16:31:29.925Z,9.93
2018-06-07T16:34:32.992Z,10.13
2018-06-07T16:37:42.128Z,9.87
2018-06-07T16:40:45.245Z,9.90
2018-06-07T16:43:48.309Z,10.33
2018-06-07T16:46:51.373Z,14.47
2018-06-07T16:49:54.461Z,12.13
2018-06-07T16:52:57.544Z,11.90
2018-06-07T16:56:00.633Z,13.17
2018-06-07T16:59:03.740Z,13.53
2018-06-07T17:02:06.837Z,16.33
2018-06-07T17:05:09.930Z,16.50
2018-06-07T17:08:13.014Z,17.53
2018-06-07T17:11:16.309Z,15.27
2018-06-07T17:14:19.396Z,18.00
2018-06-07T17:17:22.524Z,16.53
2018-06-07T17:20:25.586Z,18.17
2018-06-07T17:23:28.679Z,22.90
2018-06-07T17:26:31.738Z,34.47
2018-06-07T17:29:34.809Z,25.77
2018-06-07T17:32:37.897Z,22.23
2018-06-07T17:35:40.997Z,19.80
2018-06-07T17:38:43.864Z,20.93
2018-06-07T17:41:46.753Z,21.63
2018-06-07T17:44:49.637Z,17.70
2018-06-07T17:47:52.777Z,15.37
2018-06-07T17:50:55.817Z,14.00
2018-06-07T17:53:58.669Z,14.73
2018-06-07T17:57:01.750Z,14.47
2018-06-07T18:00:04.835Z,16.27
2018-06-07T18:03:07.898Z,13.50
2018-06-07T18:06:10.990Z,12.30
2018-06-07T18:09:14.064Z,12.17
2018-06-07T18:12:17.153Z,12.30
2018-06-07T18:15:20.243Z,14.10
2018-06-07T18:18:23.369Z,13.10
2018-06-07T18:21:26.397Z,12.83
2018-06-07T18:24:29.454Z,14.67
2018-06-07T18:27:32.538Z,14.97
2018-06-07T18:30:35.604Z,15.57
2018-06-07T18:33:38.465Z,15.63
2018-06-07T18:36:41.534Z,14.97
2018-06-07T18:39:44.630Z,14.63
2018-06-07T18:42:47.734Z,15.27
2018-06-07T18:45:50.880Z,15.60
2018-06-07T18:48:53.963Z,14.20
2018-06-07T18:51:57.023Z,15.03
2018-06-07T18:55:00.114Z,15.17
2018-06-07T18:58:03.213Z,16.10
2018-06-07T19:01:06.278Z,19.57
2018-06-07T19:07:37.132Z,16.87
2018-06-07T19:10:40.205Z,16.33
2018-06-07T19:13:48.830Z,15.23
2018-06-07T19:16:51.902Z,14.80
2018-06-07T19:20:00.377Z,16.03
2018-06-07T19:23:03.260Z,15.63
2018-06-07T19:26:11.882Z,15.90
2018-06-07T19:29:14.961Z,16.70
2018-06-07T19:32:23.381Z,15.70
2018-06-07T19:35:26.486Z,16.17
2018-06-07T19:38:29.605Z,15.93
2018-06-07T19:41:38.076Z,15.97
2018-06-07T19:44:41.182Z,14.87
2018-06-07T19:47:44.068Z,16.40
2018-06-07T19:50:46.925Z,14.93
2018-06-07T19:57:18.102Z,15.87
2018-06-07T20:00:21.210Z,14.30
2018-06-07T20:03:24.274Z,15.63
2018-06-07T20:06:27.334Z,15.60
2018-06-07T20:09:30.409Z,17.03
2018-06-07T20:12:33.486Z,14.87
2018-06-07T20:15:36.588Z,14.53
2018-06-07T20:18:39.666Z,17.13
2018-06-07T20:21:42.765Z,17.07
2018-06-07T20:24:45.825Z,15.93
2018-06-07T20:27:48.898Z,15.73
2018-06-07T20:30:51.965Z,16.13
2018-06-07T20:33:55.050Z,15.00
2018-06-07T20:36:58.134Z,16.43
2018-06-07T20:40:01.515Z,15.60
2018-06-07T20:43:04.624Z,16.43
2018-06-07T20:46:07.694Z,17.97
2018-06-07T20:49:10.770Z,18.10
2018-06-07T20:52:13.841Z,18.20
2018-06-07T20:55:16.922Z,17.57
2018-06-07T20:58:20.014Z,16.57
2018-06-07T21:01:23.101Z,17.03
2018-06-07T21:04:26.162Z,16.53
2018-06-07T21:07:29.230Z,35.40
2018-06-07T21:10:32.301Z,19.80
2018-06-07T21:13:35.381Z,16.73
2018-06-07T21:16:38.468Z,17.07
2018-06-07T21:19:41.529Z,17.27
2018-06-07T21:22:44.405Z,20.73
2018-06-07T21:25:47.497Z,20.23
2018-06-07T21:28:50.556Z,16.17
2018-06-07T21:31:53.650Z,15.40
2018-06-07T21:34:56.717Z,15.97
2018-06-07T21:37:59.810Z,15.60
2018-06-07T21:41:03.254Z,15.50
2018-06-07T21:44:06.333Z,15.00
2018-06-07T21:47:09.413Z,15.73
2018-06-07T21:50:12.479Z,15.47
2018-06-07T21:53:15.578Z,15.43
2018-06-07T21:56:18.638Z,15.70
2018-06-07T21:59:21.504Z,14.80
2018-06-07T22:02:24.561Z,15.17
2018-06-07T22:05:27.665Z,16.40
2018-06-07T22:08:30.733Z,15.70
2018-06-07T22:11:33.794Z,16.30
2018-06-07T22:14:36.870Z,16.57
2018-06-07T22:17:39.938Z,15.30
2018-06-07T22:20:43.005Z,14.60
2018-06-07T22:23:46.085Z,14.03
2018-06-07T22:26:49.172Z,14.17
2018-06-07T22:29:52.261Z,19.50
2018-06-07T22:32:55.503Z,16.20
2018-06-07T22:35:58.782Z,14.83
2018-06-07T22:39:01.987Z,13.70
2018-06-07T22:42:05.147Z,14.53
2018-06-07T22:45:08.377Z,15.07
2018-06-07T22:48:11.579Z,14.73
2018-06-07T22:51:14.818Z,14.57
2018-06-07T22:54:18.014Z,13.47
2018-06-07T22:57:21.285Z,14.87
2018-06-07T23:00:24.261Z,14.03
2018-06-07T23:03:27.414Z,13.07
2018-06-07T23:06:30.650Z,14.03
2018-06-07T23:09:33.962Z,14.13
2018-06-07T23:12:37.110Z,13.60
2018-06-07T23:15:40.311Z,14.57
2018-06-07T23:18:43.483Z,13.70
2018-06-07T23:21:46.642Z,14.40
2018-06-07T23:24:49.854Z,15.07
2018-06-07T23:27:53.124Z,15.10
2018-06-07T23:30:56.376Z,15.00
2018-06-07T23:33:59.670Z,15.13
2018-06-07T23:37:02.978Z,14.40
2018-06-07T23:40:06.263Z,15.70
2018-06-07T23:43:09.465Z,14.43
2018-06-07T23:46:12.638Z,13.63
2018-06-07T23:49:15.861Z,14.20
2018-06-07T23:52:19.101Z,12.73
2018-06-07T23:55:22.351Z,12.90
2018-06-07T23:58:25.659Z,12.97
